CheckWX is a tool to help pilots better visualize weather data.  It is not intended as a substitute for an official pre-flight weather briefing.

18:40:23 UTC

1K1 METAR
Lloyd Stearman Field Airport
Benton, Kansas, USA
Current

5 mins ago

K1K1 261835Z AUTO 22008G14KT 10SM CLR 16/06 A3035 RMK AO2 T01580058
Observed
Mar-26 @ 18:35 UTC
Wind
  • 220° at 8 KTS
  • Gusting to 14 KTS
Visibility
10 SM
Flight Rules
VFR
Cloud Levels
  • Clear skies
Temperature
16°C / 61°F
Dewpoint
C / 43°F
Humidity
52%
Altimeter
30.35" Hg
Pressure
1027.82 hPa
Previous

25 mins ago

K1K1 261815Z AUTO 20007KT 10SM CLR 15/05 A3036 RMK AO2 T01490054
Observed
Mar-26 @ 18:15 UTC
Wind
  • 200° at 7 KTS
Visibility
10 SM
Flight Rules
VFR
Cloud Levels
  • Clear skies
Temperature
15°C / 59°F
Dewpoint
C / 41°F
Humidity
51%
Altimeter
30.36" Hg
Pressure
1028.12 hPa
Previous

45 mins ago

K1K1 261755Z AUTO 22007KT 10SM CLR 15/06 A3036 RMK AO2 T01480060 10148 20000
Observed
Mar-26 @ 17:55 UTC
Wind
  • 220° at 7 KTS
Visibility
10 SM
Flight Rules
VFR
Cloud Levels
  • Clear skies
Temperature
15°C / 59°F
Dewpoint
C / 43°F
Humidity
55%
Altimeter
30.36" Hg
Pressure
1028.12 hPa